sensor_id;sensor_type;location;lat;lon;timestamp;temperature;humidity
19168;DHT22;9716;53.114;18.040;2022-08-19T00:00:09;22.90;99.90
19168;DHT22;9716;53.114;18.040;2022-08-19T00:02:59;22.90;99.90
19168;DHT22;9716;53.114;18.040;2022-08-19T00:05:28;22.90;99.90
19168;DHT22;9716;53.114;18.040;2022-08-19T00:07:56;22.90;99.90
19168;DHT22;9716;53.114;18.040;2022-08-19T00:10:24;22.90;99.90
19168;DHT22;9716;53.114;18.040;2022-08-19T00:12:53;22.90;99.90
19168;DHT22;9716;53.114;18.040;2022-08-19T00:15:22;22.90;99.90
19168;DHT22;9716;53.114;18.040;2022-08-19T00:17:51;22.90;99.90
19168;DHT22;9716;53.114;18.040;2022-08-19T00:20:22;22.90;99.90
19168;DHT22;9716;53.114;18.040;2022-08-19T00:22:51;22.90;99.90
19168;DHT22;9716;53.114;18.040;2022-08-19T00:25:19;22.90;99.90
19168;DHT22;9716;53.114;18.040;2022-08-19T00:27:56;22.90;99.90
19168;DHT22;9716;53.114;18.040;2022-08-19T00:30:26;22.80;99.90
19168;DHT22;9716;53.114;18.040;2022-08-19T00:32:55;22.80;99.90
19168;DHT22;9716;53.114;18.040;2022-08-19T00:35:25;22.80;99.90
19168;DHT22;9716;53.114;18.040;2022-08-19T00:37:55;22.80;99.90
19168;DHT22;9716;53.114;18.040;2022-08-19T00:40:23;22.80;99.90
19168;DHT22;9716;53.114;18.040;2022-08-19T00:42:53;22.80;99.90
19168;DHT22;9716;53.114;18.040;2022-08-19T00:45:26;22.80;99.90
19168;DHT22;9716;53.114;18.040;2022-08-19T00:47:58;22.70;99.90
19168;DHT22;9716;53.114;18.040;2022-08-19T00:50:41;22.70;99.90
19168;DHT22;9716;53.114;18.040;2022-08-19T00:53:20;22.70;99.90
19168;DHT22;9716;53.114;18.040;2022-08-19T00:55:53;22.70;99.90
19168;DHT22;9716;53.114;18.040;2022-08-19T00:58:27;22.70;99.90
19168;DHT22;9716;53.114;18.040;2022-08-19T01:00:56;22.70;99.90
19168;DHT22;9716;53.114;18.040;2022-08-19T01:03:25;22.70;99.90
19168;DHT22;9716;53.114;18.040;2022-08-19T01:05:55;22.70;99.90
19168;DHT22;9716;53.114;18.040;2022-08-19T01:08:23;22.70;99.90
19168;DHT22;9716;53.114;18.040;2022-08-19T01:10:54;22.70;99.90
19168;DHT22;9716;53.114;18.040;2022-08-19T01:13:26;22.60;99.90
19168;DHT22;9716;53.114;18.040;2022-08-19T01:16:17;22.70;99.90
19168;DHT22;9716;53.114;18.040;2022-08-19T01:18:47;22.70;99.90
19168;DHT22;9716;53.114;18.040;2022-08-19T01:21:24;22.60;99.90
19168;DHT22;9716;53.114;18.040;2022-08-19T01:27:45;22.60;99.90
19168;DHT22;9716;53.114;18.040;2022-08-19T01:30:18;22.60;99.90
19168;DHT22;9716;53.114;18.040;2022-08-19T01:32:47;22.60;99.90
19168;DHT22;9716;53.114;18.040;2022-08-19T01:35:16;22.60;99.90
19168;DHT22;9716;53.114;18.040;2022-08-19T01:37:47;22.50;99.90
19168;DHT22;9716;53.114;18.040;2022-08-19T01:40:17;22.50;99.90
19168;DHT22;9716;53.114;18.040;2022-08-19T01:42:50;22.50;99.90
19168;DHT22;9716;53.114;18.040;2022-08-19T01:45:21;22.50;99.90
19168;DHT22;9716;53.114;18.040;2022-08-19T01:47:50;22.50;99.90
19168;DHT22;9716;53.114;18.040;2022-08-19T01:50:29;22.40;99.90
19168;DHT22;9716;53.114;18.040;2022-08-19T01:52:58;22.40;99.90
19168;DHT22;9716;53.114;18.040;2022-08-19T01:55:35;22.40;99.90
19168;DHT22;9716;53.114;18.040;2022-08-19T01:58:12;22.40;99.90
19168;DHT22;9716;53.114;18.040;2022-08-19T02:00:43;22.40;99.90
19168;DHT22;9716;53.114;18.040;2022-08-19T02:03:12;22.40;99.90
19168;DHT22;9716;53.114;18.040;2022-08-19T02:05:41;22.40;99.90
19168;DHT22;9716;53.114;18.040;2022-08-19T02:08:10;22.30;99.90
19168;DHT22;9716;53.114;18.040;2022-08-19T02:10:40;22.30;99.90
19168;DHT22;9716;53.114;18.040;2022-08-19T02:13:11;22.30;99.90
19168;DHT22;9716;53.114;18.040;2022-08-19T02:15:41;22.30;99.90
19168;DHT22;9716;53.114;18.040;2022-08-19T02:18:09;22.30;99.90
19168;DHT22;9716;53.114;18.040;2022-08-19T02:20:39;22.20;99.90
19168;DHT22;9716;53.114;18.040;2022-08-19T02:23:09;22.20;99.90
19168;DHT22;9716;53.114;18.040;2022-08-19T02:25:42;22.20;99.90
19168;DHT22;9716;53.114;18.040;2022-08-19T02:28:13;22.30;99.90
19168;DHT22;9716;53.114;18.040;2022-08-19T02:30:46;22.10;99.90
19168;DHT22;9716;53.114;18.040;2022-08-19T02:33:15;22.10;99.90
19168;DHT22;9716;53.114;18.040;2022-08-19T02:35:45;22.10;99.90
19168;DHT22;9716;53.114;18.040;2022-08-19T02:38:14;22.00;99.90
19168;DHT22;9716;53.114;18.040;2022-08-19T02:40:56;22.00;99.90
19168;DHT22;9716;53.114;18.040;2022-08-19T02:43:28;22.00;99.90
19168;DHT22;9716;53.114;18.040;2022-08-19T02:46:01;22.00;99.90
19168;DHT22;9716;53.114;18.040;2022-08-19T02:48:30;22.00;99.90
19168;DHT22;9716;53.114;18.040;2022-08-19T02:50:59;22.00;99.90
19168;DHT22;9716;53.114;18.040;2022-08-19T02:53:28;22.00;99.90
19168;DHT22;9716;53.114;18.040;2022-08-19T02:55:57;22.00;99.90
19168;DHT22;9716;53.114;18.040;2022-08-19T02:58:27;22.00;99.90
19168;DHT22;9716;53.114;18.040;2022-08-19T03:00:56;22.00;99.90
19168;DHT22;9716;53.114;18.040;2022-08-19T03:03:25;22.00;99.90
19168;DHT22;9716;53.114;18.040;2022-08-19T03:06:04;22.00;99.90
19168;DHT22;9716;53.114;18.040;2022-08-19T03:08:33;22.00;99.90
19168;DHT22;9716;53.114;18.040;2022-08-19T03:11:02;21.90;99.90
19168;DHT22;9716;53.114;18.040;2022-08-19T03:13:32;21.90;99.90
19168;DHT22;9716;53.114;18.040;2022-08-19T03:16:05;21.90;99.90
19168;DHT22;9716;53.114;18.040;2022-08-19T03:18:33;21.90;99.90
19168;DHT22;9716;53.114;18.040;2022-08-19T03:21:02;21.90;99.90
19168;DHT22;9716;53.114;18.040;2022-08-19T03:23:30;21.90;99.90
19168;DHT22;9716;53.114;18.040;2022-08-19T03:25:59;21.80;99.90
19168;DHT22;9716;53.114;18.040;2022-08-19T03:28:45;21.80;99.90
19168;DHT22;9716;53.114;18.040;2022-08-19T03:31:25;21.80;99.90
19168;DHT22;9716;53.114;18.040;2022-08-19T03:34:13;21.80;99.90
19168;DHT22;9716;53.114;18.040;2022-08-19T03:36:42;21.70;99.90
19168;DHT22;9716;53.114;18.040;2022-08-19T03:39:10;21.70;99.90
19168;DHT22;9716;53.114;18.040;2022-08-19T03:41:40;21.70;99.90
19168;DHT22;9716;53.114;18.040;2022-08-19T03:44:14;21.70;99.90
19168;DHT22;9716;53.114;18.040;2022-08-19T03:46:46;21.70;99.90
19168;DHT22;9716;53.114;18.040;2022-08-19T03:49:15;21.70;99.90
19168;DHT22;9716;53.114;18.040;2022-08-19T03:51:46;21.70;99.90
19168;DHT22;9716;53.114;18.040;2022-08-19T03:54:17;21.80;99.90
19168;DHT22;9716;53.114;18.040;2022-08-19T03:56:47;21.80;99.90
19168;DHT22;9716;53.114;18.040;2022-08-19T03:59:20;21.80;99.90
19168;DHT22;9716;53.114;18.040;2022-08-19T04:01:49;21.80;99.90
19168;DHT22;9716;53.114;18.040;2022-08-19T04:04:17;21.90;99.90
19168;DHT22;9716;53.114;18.040;2022-08-19T04:06:46;21.90;99.90
19168;DHT22;9716;53.114;18.040;2022-08-19T04:09:15;22.00;99.90
19168;DHT22;9716;53.114;18.040;2022-08-19T04:11:47;22.00;99.90
19168;DHT22;9716;53.114;18.040;2022-08-19T04:14:19;22.10;99.90
19168;DHT22;9716;53.114;18.040;2022-08-19T04:16:49;22.10;99.90
19168;DHT22;9716;53.114;18.040;2022-08-19T04:19:18;22.10;99.90
19168;DHT22;9716;53.114;18.040;2022-08-19T04:21:49;22.20;99.90
19168;DHT22;9716;53.114;18.040;2022-08-19T04:24:19;22.20;99.90
19168;DHT22;9716;53.114;18.040;2022-08-19T04:26:48;22.30;99.90
19168;DHT22;9716;53.114;18.040;2022-08-19T04:29:20;22.30;99.90
19168;DHT22;9716;53.114;18.040;2022-08-19T04:31:53;22.40;99.90
19168;DHT22;9716;53.114;18.040;2022-08-19T04:34:24;22.50;99.90
19168;DHT22;9716;53.114;18.040;2022-08-19T04:36:55;22.60;99.90
19168;DHT22;9716;53.114;18.040;2022-08-19T04:39:26;22.70;99.90
19168;DHT22;9716;53.114;18.040;2022-08-19T04:42:17;22.80;99.90
19168;DHT22;9716;53.114;18.040;2022-08-19T04:45:09;22.90;99.90
19168;DHT22;9716;53.114;18.040;2022-08-19T04:47:40;23.00;99.90
19168;DHT22;9716;53.114;18.040;2022-08-19T04:50:24;23.20;99.90
19168;DHT22;9716;53.114;18.040;2022-08-19T04:52:53;23.40;99.90
19168;DHT22;9716;53.114;18.040;2022-08-19T04:55:23;23.50;99.90
19168;DHT22;9716;53.114;18.040;2022-08-19T04:57:53;23.50;99.90
19168;DHT22;9716;53.114;18.040;2022-08-19T05:00:23;23.60;99.90
19168;DHT22;9716;53.114;18.040;2022-08-19T05:02:52;23.60;99.90
19168;DHT22;9716;53.114;18.040;2022-08-19T05:05:21;23.50;99.90
19168;DHT22;9716;53.114;18.040;2022-08-19T05:07:49;23.70;99.90
19168;DHT22;9716;53.114;18.040;2022-08-19T05:10:18;23.70;99.90
19168;DHT22;9716;53.114;18.040;2022-08-19T05:12:47;23.80;99.90
19168;DHT22;9716;53.114;18.040;2022-08-19T05:15:17;23.90;99.90
19168;DHT22;9716;53.114;18.040;2022-08-19T05:17:47;24.10;99.90
19168;DHT22;9716;53.114;18.040;2022-08-19T05:20:30;24.30;99.90
19168;DHT22;9716;53.114;18.040;2022-08-19T05:23:16;24.60;99.90
19168;DHT22;9716;53.114;18.040;2022-08-19T05:25:49;24.80;99.90
19168;DHT22;9716;53.114;18.040;2022-08-19T05:28:19;25.00;99.90
19168;DHT22;9716;53.114;18.040;2022-08-19T05:30:49;25.00;99.90
19168;DHT22;9716;53.114;18.040;2022-08-19T05:33:19;25.00;99.90
19168;DHT22;9716;53.114;18.040;2022-08-19T05:35:48;25.00;99.90
19168;DHT22;9716;53.114;18.040;2022-08-19T05:38:18;25.10;99.90
19168;DHT22;9716;53.114;18.040;2022-08-19T05:40:47;25.30;99.90
19168;DHT22;9716;53.114;18.040;2022-08-19T05:43:17;25.50;99.90
19168;DHT22;9716;53.114;18.040;2022-08-19T05:45:45;25.80;99.90
19168;DHT22;9716;53.114;18.040;2022-08-19T05:48:17;25.90;99.90
19168;DHT22;9716;53.114;18.040;2022-08-19T05:50:48;26.10;99.90
19168;DHT22;9716;53.114;18.040;2022-08-19T05:53:19;26.30;99.90
19168;DHT22;9716;53.114;18.040;2022-08-19T05:55:47;26.50;99.90
19168;DHT22;9716;53.114;18.040;2022-08-19T05:58:16;26.70;99.90
19168;DHT22;9716;53.114;18.040;2022-08-19T06:00:49;26.80;99.90
19168;DHT22;9716;53.114;18.040;2022-08-19T06:03:19;26.80;99.90
19168;DHT22;9716;53.114;18.040;2022-08-19T06:05:49;27.00;99.90
19168;DHT22;9716;53.114;18.040;2022-08-19T06:08:19;27.30;99.90
19168;DHT22;9716;53.114;18.040;2022-08-19T06:11:15;27.60;99.90
19168;DHT22;9716;53.114;18.040;2022-08-19T06:13:46;27.90;99.90
19168;DHT22;9716;53.114;18.040;2022-08-19T06:16:25;28.10;99.90
19168;DHT22;9716;53.114;18.040;2022-08-19T06:18:55;28.40;99.90
19168;DHT22;9716;53.114;18.040;2022-08-19T06:21:27;28.40;99.90
19168;DHT22;9716;53.114;18.040;2022-08-19T06:23:57;28.50;99.90
19168;DHT22;9716;53.114;18.040;2022-08-19T06:26:26;28.40;99.90
19168;DHT22;9716;53.114;18.040;2022-08-19T06:28:55;28.40;99.90
19168;DHT22;9716;53.114;18.040;2022-08-19T06:31:25;28.40;99.90
19168;DHT22;9716;53.114;18.040;2022-08-19T06:33:54;28.50;99.90
19168;DHT22;9716;53.114;18.040;2022-08-19T06:36:26;28.40;99.90
19168;DHT22;9716;53.114;18.040;2022-08-19T06:38:59;28.30;99.90
19168;DHT22;9716;53.114;18.040;2022-08-19T06:41:28;28.20;99.90
19168;DHT22;9716;53.114;18.040;2022-08-19T06:43:57;28.10;99.90
19168;DHT22;9716;53.114;18.040;2022-08-19T06:46:26;28.10;99.90
19168;DHT22;9716;53.114;18.040;2022-08-19T06:48:59;28.10;99.90
19168;DHT22;9716;53.114;18.040;2022-08-19T06:51:30;28.20;99.90
19168;DHT22;9716;53.114;18.040;2022-08-19T06:53:59;28.30;99.90
19168;DHT22;9716;53.114;18.040;2022-08-19T06:56:30;28.50;99.90
19168;DHT22;9716;53.114;18.040;2022-08-19T06:59:02;28.70;99.90
19168;DHT22;9716;53.114;18.040;2022-08-19T07:01:34;28.80;99.90
19168;DHT22;9716;53.114;18.040;2022-08-19T07:04:05;29.10;99.90
19168;DHT22;9716;53.114;18.040;2022-08-19T07:06:39;29.40;99.90
19168;DHT22;9716;53.114;18.040;2022-08-19T07:09:12;29.60;99.90
19168;DHT22;9716;53.114;18.040;2022-08-19T07:11:46;29.60;99.90
19168;DHT22;9716;53.114;18.040;2022-08-19T07:14:19;29.60;99.90
19168;DHT22;9716;53.114;18.040;2022-08-19T07:16:49;29.80;99.90
19168;DHT22;9716;53.114;18.040;2022-08-19T07:19:19;30.10;99.90
19168;DHT22;9716;53.114;18.040;2022-08-19T07:21:50;30.40;99.90
19168;DHT22;9716;53.114;18.040;2022-08-19T07:24:21;30.70;99.90
19168;DHT22;9716;53.114;18.040;2022-08-19T07:26:52;30.80;99.90
19168;DHT22;9716;53.114;18.040;2022-08-19T07:29:22;30.90;99.90
19168;DHT22;9716;53.114;18.040;2022-08-19T07:31:55;31.00;99.90
19168;DHT22;9716;53.114;18.040;2022-08-19T07:34:28;31.00;99.90
19168;DHT22;9716;53.114;18.040;2022-08-19T07:36:58;31.00;99.90
19168;DHT22;9716;53.114;18.040;2022-08-19T07:39:30;31.00;99.90
19168;DHT22;9716;53.114;18.040;2022-08-19T07:42:00;31.00;99.90
19168;DHT22;9716;53.114;18.040;2022-08-19T07:44:29;31.20;99.90
19168;DHT22;9716;53.114;18.040;2022-08-19T07:46:58;31.40;99.30
19168;DHT22;9716;53.114;18.040;2022-08-19T07:49:27;31.60;98.60
19168;DHT22;9716;53.114;18.040;2022-08-19T07:51:59;31.80;98.20
19168;DHT22;9716;53.114;18.040;2022-08-19T07:54:32;32.00;97.70
19168;DHT22;9716;53.114;18.040;2022-08-19T07:57:03;32.10;97.20
19168;DHT22;9716;53.114;18.040;2022-08-19T07:59:33;32.20;96.60
19168;DHT22;9716;53.114;18.040;2022-08-19T08:02:02;32.30;95.90
19168;DHT22;9716;53.114;18.040;2022-08-19T08:04:31;32.30;95.50
19168;DHT22;9716;53.114;18.040;2022-08-19T08:07:19;32.40;95.10
19168;DHT22;9716;53.114;18.040;2022-08-19T08:10:06;32.50;94.80
19168;DHT22;9716;53.114;18.040;2022-08-19T08:12:47;32.60;94.50
19168;DHT22;9716;53.114;18.040;2022-08-19T08:15:36;32.80;94.10
19168;DHT22;9716;53.114;18.040;2022-08-19T08:18:10;33.00;93.50
19168;DHT22;9716;53.114;18.040;2022-08-19T08:20:40;33.20;92.60
19168;DHT22;9716;53.114;18.040;2022-08-19T08:23:10;33.40;92.20
19168;DHT22;9716;53.114;18.040;2022-08-19T08:25:55;33.60;91.70
19168;DHT22;9716;53.114;18.040;2022-08-19T08:28:24;33.80;91.00
19168;DHT22;9716;53.114;18.040;2022-08-19T08:30:56;33.90;90.40
19168;DHT22;9716;53.114;18.040;2022-08-19T08:33:28;34.00;89.30
19168;DHT22;9716;53.114;18.040;2022-08-19T08:36:01;34.10;88.70
19168;DHT22;9716;53.114;18.040;2022-08-19T08:38:32;34.20;87.20
19168;DHT22;9716;53.114;18.040;2022-08-19T08:41:17;34.20;85.60
19168;DHT22;9716;53.114;18.040;2022-08-19T08:43:49;34.20;85.40
19168;DHT22;9716;53.114;18.040;2022-08-19T08:46:24;34.30;84.00
19168;DHT22;9716;53.114;18.040;2022-08-19T08:49:02;34.50;82.50
19168;DHT22;9716;53.114;18.040;2022-08-19T08:51:39;34.60;82.00
19168;DHT22;9716;53.114;18.040;2022-08-19T08:54:20;34.70;80.80
19168;DHT22;9716;53.114;18.040;2022-08-19T08:56:49;34.70;80.20
19168;DHT22;9716;53.114;18.040;2022-08-19T08:59:23;34.70;79.30
19168;DHT22;9716;53.114;18.040;2022-08-19T09:01:54;34.60;78.70
19168;DHT22;9716;53.114;18.040;2022-08-19T09:04:23;34.50;78.10
19168;DHT22;9716;53.114;18.040;2022-08-19T09:06:56;34.40;77.90
19168;DHT22;9716;53.114;18.040;2022-08-19T09:09:31;34.40;77.60
19168;DHT22;9716;53.114;18.040;2022-08-19T09:12:06;34.50;77.10
19168;DHT22;9716;53.114;18.040;2022-08-19T09:14:45;34.60;76.80
19168;DHT22;9716;53.114;18.040;2022-08-19T09:17:21;34.60;76.70
19168;DHT22;9716;53.114;18.040;2022-08-19T09:19:57;34.50;76.50
19168;DHT22;9716;53.114;18.040;2022-08-19T09:22:31;34.30;77.20
19168;DHT22;9716;53.114;18.040;2022-08-19T09:25:02;34.30;76.90
19168;DHT22;9716;53.114;18.040;2022-08-19T09:27:31;34.30;76.70
19168;DHT22;9716;53.114;18.040;2022-08-19T09:30:13;34.30;76.80
19168;DHT22;9716;53.114;18.040;2022-08-19T09:32:42;34.20;76.60
19168;DHT22;9716;53.114;18.040;2022-08-19T09:35:13;34.20;76.70
19168;DHT22;9716;53.114;18.040;2022-08-19T09:37:42;34.10;76.70
19168;DHT22;9716;53.114;18.040;2022-08-19T09:40:13;34.00;76.90
19168;DHT22;9716;53.114;18.040;2022-08-19T09:42:42;33.90;77.20
19168;DHT22;9716;53.114;18.040;2022-08-19T09:45:19;33.80;77.50
19168;DHT22;9716;53.114;18.040;2022-08-19T09:47:50;33.90;77.90
19168;DHT22;9716;53.114;18.040;2022-08-19T09:50:22;33.90;77.60
19168;DHT22;9716;53.114;18.040;2022-08-19T09:52:51;34.10;77.30
19168;DHT22;9716;53.114;18.040;2022-08-19T09:55:25;34.20;77.10
19168;DHT22;9716;53.114;18.040;2022-08-19T09:58:00;34.30;75.80
19168;DHT22;9716;53.114;18.040;2022-08-19T10:00:29;34.20;76.00
19168;DHT22;9716;53.114;18.040;2022-08-19T10:02:58;34.30;76.10
19168;DHT22;9716;53.114;18.040;2022-08-19T10:05:27;34.30;75.50
19168;DHT22;9716;53.114;18.040;2022-08-19T10:08:15;34.40;75.60
19168;DHT22;9716;53.114;18.040;2022-08-19T10:10:49;34.50;75.20
19168;DHT22;9716;53.114;18.040;2022-08-19T10:13:19;34.60;74.90
19168;DHT22;9716;53.114;18.040;2022-08-19T10:15:50;34.70;74.60
19168;DHT22;9716;53.114;18.040;2022-08-19T10:18:20;34.80;74.50
19168;DHT22;9716;53.114;18.040;2022-08-19T10:20:50;35.00;74.50
19168;DHT22;9716;53.114;18.040;2022-08-19T10:23:21;35.20;73.90
19168;DHT22;9716;53.114;18.040;2022-08-19T10:25:51;35.30;73.10
19168;DHT22;9716;53.114;18.040;2022-08-19T10:28:20;35.10;72.70
19168;DHT22;9716;53.114;18.040;2022-08-19T10:30:50;35.00;73.00
19168;DHT22;9716;53.114;18.040;2022-08-19T10:33:18;34.80;73.30
19168;DHT22;9716;53.114;18.040;2022-08-19T10:36:10;34.60;73.70
19168;DHT22;9716;53.114;18.040;2022-08-19T10:38:38;34.50;74.20
19168;DHT22;9716;53.114;18.040;2022-08-19T10:41:22;34.40;73.70
19168;DHT22;9716;53.114;18.040;2022-08-19T10:43:51;34.40;73.90
19168;DHT22;9716;53.114;18.040;2022-08-19T10:46:23;34.30;73.30
19168;DHT22;9716;53.114;18.040;2022-08-19T10:48:52;34.30;73.60
19168;DHT22;9716;53.114;18.040;2022-08-19T10:51:21;34.30;73.50
19168;DHT22;9716;53.114;18.040;2022-08-19T10:54:14;34.30;73.50
19168;DHT22;9716;53.114;18.040;2022-08-19T10:56:58;34.40;73.60
19168;DHT22;9716;53.114;18.040;2022-08-19T10:59:28;34.50;73.40
19168;DHT22;9716;53.114;18.040;2022-08-19T11:02:03;34.70;73.10
19168;DHT22;9716;53.114;18.040;2022-08-19T11:04:33;34.80;72.80
19168;DHT22;9716;53.114;18.040;2022-08-19T11:07:02;34.90;72.70
19168;DHT22;9716;53.114;18.040;2022-08-19T11:09:36;34.90;72.60
19168;DHT22;9716;53.114;18.040;2022-08-19T11:12:08;34.80;72.80
19168;DHT22;9716;53.114;18.040;2022-08-19T11:14:37;34.80;73.10
19168;DHT22;9716;53.114;18.040;2022-08-19T11:17:06;34.80;73.20
19168;DHT22;9716;53.114;18.040;2022-08-19T11:19:35;34.80;73.20
19168;DHT22;9716;53.114;18.040;2022-08-19T11:22:03;34.80;73.10
19168;DHT22;9716;53.114;18.040;2022-08-19T11:24:35;34.70;73.60
19168;DHT22;9716;53.114;18.040;2022-08-19T11:27:08;34.60;73.50
19168;DHT22;9716;53.114;18.040;2022-08-19T11:29:38;34.70;73.60
19168;DHT22;9716;53.114;18.040;2022-08-19T11:32:09;34.70;73.50
19168;DHT22;9716;53.114;18.040;2022-08-19T11:34:37;34.70;73.50
19168;DHT22;9716;53.114;18.040;2022-08-19T11:37:07;34.80;73.90
19168;DHT22;9716;53.114;18.040;2022-08-19T11:39:36;34.80;73.70
19168;DHT22;9716;53.114;18.040;2022-08-19T11:42:07;34.80;72.90
19168;DHT22;9716;53.114;18.040;2022-08-19T11:44:50;34.80;73.10
19168;DHT22;9716;53.114;18.040;2022-08-19T11:47:19;34.80;72.90
19168;DHT22;9716;53.114;18.040;2022-08-19T11:49:47;34.80;72.60
19168;DHT22;9716;53.114;18.040;2022-08-19T11:52:16;34.90;72.70
19168;DHT22;9716;53.114;18.040;2022-08-19T11:54:44;35.00;72.90
19168;DHT22;9716;53.114;18.040;2022-08-19T11:57:15;35.00;71.40
19168;DHT22;9716;53.114;18.040;2022-08-19T11:59:48;35.10;71.10
19168;DHT22;9716;53.114;18.040;2022-08-19T12:02:17;35.00;70.70
19168;DHT22;9716;53.114;18.040;2022-08-19T12:04:46;35.00;70.50
19168;DHT22;9716;53.114;18.040;2022-08-19T12:07:14;34.90;70.40
19168;DHT22;9716;53.114;18.040;2022-08-19T12:09:43;34.90;70.40
19168;DHT22;9716;53.114;18.040;2022-08-19T12:12:16;34.90;70.40
19168;DHT22;9716;53.114;18.040;2022-08-19T12:14:44;34.90;70.50
19168;DHT22;9716;53.114;18.040;2022-08-19T12:17:13;34.90;70.80
19168;DHT22;9716;53.114;18.040;2022-08-19T12:19:42;34.90;70.00
19168;DHT22;9716;53.114;18.040;2022-08-19T12:22:11;34.90;69.60
19168;DHT22;9716;53.114;18.040;2022-08-19T12:24:40;35.00;69.60
19168;DHT22;9716;53.114;18.040;2022-08-19T12:27:08;35.00;69.10
19168;DHT22;9716;53.114;18.040;2022-08-19T12:29:40;35.10;68.80
19168;DHT22;9716;53.114;18.040;2022-08-19T12:32:09;35.00;68.80
19168;DHT22;9716;53.114;18.040;2022-08-19T12:34:38;34.90;69.00
19168;DHT22;9716;53.114;18.040;2022-08-19T12:37:07;34.90;68.80
19168;DHT22;9716;53.114;18.040;2022-08-19T12:39:37;34.90;68.90
19168;DHT22;9716;53.114;18.040;2022-08-19T12:42:06;34.90;69.10
19168;DHT22;9716;53.114;18.040;2022-08-19T12:44:35;34.80;68.90
19168;DHT22;9716;53.114;18.040;2022-08-19T12:47:05;34.80;69.10
19168;DHT22;9716;53.114;18.040;2022-08-19T12:49:37;34.70;68.80
19168;DHT22;9716;53.114;18.040;2022-08-19T12:52:22;34.60;69.10
19168;DHT22;9716;53.114;18.040;2022-08-19T12:54:51;34.50;69.70
19168;DHT22;9716;53.114;18.040;2022-08-19T12:57:22;34.50;70.30
19168;DHT22;9716;53.114;18.040;2022-08-19T13:00:00;34.50;70.60
19168;DHT22;9716;53.114;18.040;2022-08-19T13:02:33;34.50;70.30
19168;DHT22;9716;53.114;18.040;2022-08-19T13:05:08;34.50;70.20
19168;DHT22;9716;53.114;18.040;2022-08-19T13:07:37;34.50;70.00
19168;DHT22;9716;53.114;18.040;2022-08-19T13:10:07;34.50;70.20
19168;DHT22;9716;53.114;18.040;2022-08-19T13:12:36;34.50;70.40
19168;DHT22;9716;53.114;18.040;2022-08-19T13:15:05;34.50;70.20
19168;DHT22;9716;53.114;18.040;2022-08-19T13:17:39;34.50;70.70
19168;DHT22;9716;53.114;18.040;2022-08-19T13:20:09;34.50;70.50
19168;DHT22;9716;53.114;18.040;2022-08-19T13:22:38;34.50;70.60
19168;DHT22;9716;53.114;18.040;2022-08-19T13:25:08;34.50;70.40
19168;DHT22;9716;53.114;18.040;2022-08-19T13:27:37;34.50;70.60
19168;DHT22;9716;53.114;18.040;2022-08-19T13:30:08;34.50;70.60
19168;DHT22;9716;53.114;18.040;2022-08-19T13:32:56;34.50;70.60
19168;DHT22;9716;53.114;18.040;2022-08-19T13:35:45;34.40;70.60
19168;DHT22;9716;53.114;18.040;2022-08-19T13:38:16;34.40;69.90
19168;DHT22;9716;53.114;18.040;2022-08-19T13:40:45;34.40;70.40
19168;DHT22;9716;53.114;18.040;2022-08-19T13:43:14;34.40;70.30
19168;DHT22;9716;53.114;18.040;2022-08-19T13:45:51;34.40;70.20
19168;DHT22;9716;53.114;18.040;2022-08-19T13:48:22;34.40;69.90
19168;DHT22;9716;53.114;18.040;2022-08-19T13:50:51;34.40;70.20
19168;DHT22;9716;53.114;18.040;2022-08-19T13:53:21;34.30;70.30
19168;DHT22;9716;53.114;18.040;2022-08-19T13:55:50;34.30;71.10
19168;DHT22;9716;53.114;18.040;2022-08-19T13:58:20;34.30;70.10
19168;DHT22;9716;53.114;18.040;2022-08-19T14:00:50;34.30;70.40
19168;DHT22;9716;53.114;18.040;2022-08-19T14:03:18;34.40;70.20
19168;DHT22;9716;53.114;18.040;2022-08-19T14:05:48;34.40;70.00
19168;DHT22;9716;53.114;18.040;2022-08-19T14:08:17;34.40;69.80
19168;DHT22;9716;53.114;18.040;2022-08-19T14:10:46;34.40;69.90
19168;DHT22;9716;53.114;18.040;2022-08-19T14:13:17;34.40;69.90
19168;DHT22;9716;53.114;18.040;2022-08-19T14:15:46;34.40;69.50
19168;DHT22;9716;53.114;18.040;2022-08-19T14:18:17;34.50;69.40
19168;DHT22;9716;53.114;18.040;2022-08-19T14:20:47;34.50;69.20
19168;DHT22;9716;53.114;18.040;2022-08-19T14:23:16;34.40;69.60
19168;DHT22;9716;53.114;18.040;2022-08-19T14:25:44;34.40;69.70
19168;DHT22;9716;53.114;18.040;2022-08-19T14:28:13;34.40;69.50
19168;DHT22;9716;53.114;18.040;2022-08-19T14:30:41;34.30;68.90
19168;DHT22;9716;53.114;18.040;2022-08-19T14:33:11;34.30;68.20
19168;DHT22;9716;53.114;18.040;2022-08-19T14:35:41;34.20;68.50
19168;DHT22;9716;53.114;18.040;2022-08-19T14:38:17;34.20;68.40
19168;DHT22;9716;53.114;18.040;2022-08-19T14:41:10;34.20;68.50
19168;DHT22;9716;53.114;18.040;2022-08-19T14:43:39;34.20;68.30
19168;DHT22;9716;53.114;18.040;2022-08-19T14:46:08;34.20;68.10
19168;DHT22;9716;53.114;18.040;2022-08-19T14:48:37;34.10;67.90
19168;DHT22;9716;53.114;18.040;2022-08-19T14:51:07;34.00;67.70
19168;DHT22;9716;53.114;18.040;2022-08-19T14:53:38;33.90;67.80
19168;DHT22;9716;53.114;18.040;2022-08-19T14:56:08;33.90;68.10
19168;DHT22;9716;53.114;18.040;2022-08-19T14:58:38;33.80;68.50
19168;DHT22;9716;53.114;18.040;2022-08-19T15:01:08;33.80;68.90
19168;DHT22;9716;53.114;18.040;2022-08-19T15:03:37;33.80;68.80
19168;DHT22;9716;53.114;18.040;2022-08-19T15:06:08;33.70;69.20
19168;DHT22;9716;53.114;18.040;2022-08-19T15:08:41;33.70;69.20
19168;DHT22;9716;53.114;18.040;2022-08-19T15:11:13;33.60;69.60
19168;DHT22;9716;53.114;18.040;2022-08-19T15:13:43;33.50;69.90
19168;DHT22;9716;53.114;18.040;2022-08-19T15:16:13;33.50;69.90
19168;DHT22;9716;53.114;18.040;2022-08-19T15:18:44;33.50;70.00
19168;DHT22;9716;53.114;18.040;2022-08-19T15:21:15;33.50;70.30
19168;DHT22;9716;53.114;18.040;2022-08-19T15:23:56;33.40;70.60
19168;DHT22;9716;53.114;18.040;2022-08-19T15:26:25;33.40;70.70
19168;DHT22;9716;53.114;18.040;2022-08-19T15:28:55;33.40;70.90
19168;DHT22;9716;53.114;18.040;2022-08-19T15:31:24;33.40;70.70
19168;DHT22;9716;53.114;18.040;2022-08-19T15:33:55;33.40;70.90
19168;DHT22;9716;53.114;18.040;2022-08-19T15:36:25;33.30;70.90
19168;DHT22;9716;53.114;18.040;2022-08-19T15:38:56;33.40;71.10
19168;DHT22;9716;53.114;18.040;2022-08-19T15:41:27;33.40;71.10
19168;DHT22;9716;53.114;18.040;2022-08-19T15:43:59;33.40;70.80
19168;DHT22;9716;53.114;18.040;2022-08-19T15:46:31;33.40;70.70
19168;DHT22;9716;53.114;18.040;2022-08-19T15:49:00;33.40;71.00
19168;DHT22;9716;53.114;18.040;2022-08-19T15:51:30;33.30;71.00
19168;DHT22;9716;53.114;18.040;2022-08-19T15:54:02;33.30;71.10
19168;DHT22;9716;53.114;18.040;2022-08-19T15:56:31;33.30;71.10
19168;DHT22;9716;53.114;18.040;2022-08-19T15:59:33;33.30;71.00
19168;DHT22;9716;53.114;18.040;2022-08-19T16:02:23;33.30;70.90